Time;durP1;ratioP1;P1;durP2;ratioP2;P2;SDS_P1;SDS_P2;PMS_P1;PMS_P2;Temp;Humidity;BMP_temperature;BMP_pressure;BME280_temperature;BME280_humidity;BME280_pressure;Samples;Min_cycle;Max_cycle;Signal;HPM_P1;HPM_P2
2022/08/20 00:00:35;;;;;;;7.40;4.68;;;;;;;21.90;61.56;98912.16;6183772;23;20432;-89
2022/08/20 00:03:29;;;;;;;6.90;4.75;;;;;;;21.89;61.09;98910.53;6183644;23;20003;-90
2022/08/20 00:06:01;;;;;;;5.60;4.95;;;;;;;21.85;61.48;98912.41;6122593;23;20004;-89
2022/08/20 00:08:26;;;;;;;7.95;6.28;;;;;;;21.88;61.00;98914.44;6182998;23;19997;-91
2022/08/20 00:10:52;;;;;;;7.20;5.35;;;;;;;21.85;61.52;98913.22;6184116;23;20005;-92
2022/08/20 00:13:21;;;;;;;10.32;5.40;;;;;;;21.89;61.17;98921.50;6158215;23;20417;-90
2022/08/20 00:15:47;;;;;;;7.50;5.22;;;;;;;21.80;61.20;98900.56;6183137;23;20017;-92
2022/08/20 00:18:12;;;;;;;8.43;5.57;;;;;;;21.82;61.13;98902.94;6158169;23;20028;-92
2022/08/20 00:20:41;;;;;;;10.95;5.50;;;;;;;21.90;61.05;98895.69;6133601;23;20005;-92
2022/08/20 00:23:06;;;;;;;7.30;5.13;;;;;;;21.98;61.23;98914.69;6160402;23;20063;-91
2022/08/20 00:25:32;;;;;;;7.68;5.25;;;;;;;22.00;61.31;98914.34;6213547;23;20000;-91
2022/08/20 00:27:57;;;;;;;7.90;5.22;;;;;;;21.95;61.55;98909.13;6187962;23;20004;-92
2022/08/20 00:30:24;;;;;;;7.45;4.88;;;;;;;21.92;61.58;98899.66;6187858;23;19997;-91
2022/08/20 00:32:58;;;;;;;7.32;4.57;;;;;;;21.91;61.78;98900.03;6163139;23;20395;-92
2022/08/20 00:35:26;;;;;;;9.52;5.55;;;;;;;21.79;61.80;98884.50;6163602;23;20008;-92
2022/08/20 00:37:52;;;;;;;8.18;5.70;;;;;;;21.79;61.40;98904.47;6188145;23;19998;-92
2022/08/20 00:40:21;;;;;;;9.63;5.32;;;;;;;21.70;62.25;98900.31;6139334;23;20462;-91
2022/08/20 00:42:51;;;;;;;8.55;5.22;;;;;;;21.63;62.46;98894.66;6165408;23;20000;-91
2022/08/20 00:45:17;;;;;;;7.43;5.00;;;;;;;21.57;62.14;98897.66;6165021;23;20329;-91
2022/08/20 00:47:43;;;;;;;8.25;4.90;;;;;;;21.58;62.36;98899.25;6140187;23;20340;-92
2022/08/20 00:50:10;;;;;;;10.65;5.38;;;;;;;21.63;62.38;98905.63;6164995;23;20035;-92
2022/08/20 00:52:36;;;;;;;9.02;5.20;;;;;;;21.51;62.75;98893.59;6190178;23;20005;-92
2022/08/20 00:55:02;;;;;;;6.20;4.57;;;;;;;21.69;62.14;98913.22;6189716;23;20011;-90
2022/08/20 00:57:33;;;;;;;8.05;5.50;;;;;;;21.61;62.21;98891.50;6140577;23;19996;-91
2022/08/20 00:59:59;;;;;;;8.18;5.22;;;;;;;21.69;62.73;98913.22;6140830;23;20083;-91
2022/08/20 01:02:26;;;;;;;9.65;5.25;;;;;;;21.53;62.61;98894.03;6214874;23;20031;-91
2022/08/20 01:04:55;;;;;;;6.45;5.28;;;;;;;21.54;62.72;98890.16;6165288;23;20008;-92
2022/08/20 01:07:27;;;;;;;7.00;4.70;;;;;;;21.48;62.87;98883.34;6190377;23;20008;-91
2022/08/20 01:09:53;;;;;;;7.15;4.88;;;;;;;21.55;62.92;98907.38;6154289;23;20011;-91
2022/08/20 01:12:19;;;;;;;8.25;5.47;;;;;;;21.44;63.13;98890.69;6160019;23;20001;-91
2022/08/20 01:14:45;;;;;;;8.65;5.57;;;;;;;21.37;63.24;98891.28;6138783;23;20016;-92
2022/08/20 01:17:16;;;;;;;7.85;5.18;;;;;;;21.42;63.63;98906.69;6164892;23;19996;-92
2022/08/20 01:19:44;;;;;;;9.90;5.30;;;;;;;21.25;63.80;98893.28;6189793;23;20055;-91
2022/08/20 01:25:00;;;;;;;6.85;5.28;;;;;;;21.22;63.88;98904.94;6184771;23;20083;-91
2022/08/20 01:27:25;;;;;;;9.23;5.95;;;;;;;21.14;64.21;98885.56;6135582;23;20451;-91
2022/08/20 01:29:51;;;;;;;9.07;6.38;;;;;;;21.11;64.37;98883.53;6134907;23;20001;-92
2022/08/20 01:32:16;;;;;;;9.07;5.88;;;;;;;21.20;63.75;98892.38;6135094;23;20004;-91
2022/08/20 01:34:42;;;;;;;8.40;6.03;;;;;;;21.15;63.72;98884.44;6134951;23;20005;-91
2022/08/20 01:37:07;;;;;;;8.07;4.95;;;;;;;21.12;64.36;98882.38;6110691;23;19993;-91
2022/08/20 01:39:33;;;;;;;9.13;5.70;;;;;;;21.14;64.29;98884.78;6159350;23;20001;-92
2022/08/20 01:42:08;;;;;;;8.90;5.28;;;;;;;21.17;64.50;98895.06;6135512;23;19997;-91
2022/08/20 01:44:35;;;;;;;6.68;5.55;;;;;;;21.03;65.32;98879.03;6159077;23;20427;-92
2022/08/20 01:47:22;;;;;;;8.20;5.28;;;;;;;20.98;64.54;98868.34;6134549;23;20059;-92
2022/08/20 01:49:50;;;;;;;8.30;5.63;;;;;;;21.01;65.11;98869.59;6112647;23;20005;-92
2022/08/20 01:52:45;;;;;;;7.28;5.40;;;;;;;21.14;64.73;98879.31;6134606;23;20001;-92
2022/08/20 01:55:11;;;;;;;7.78;5.68;;;;;;;21.04;64.53;98860.66;6154663;23;20431;-91
2022/08/20 01:57:37;;;;;;;7.82;5.00;;;;;;;20.96;64.41;98856.97;6135449;23;20000;-91
2022/08/20 02:00:12;;;;;;;7.90;5.20;;;;;;;20.88;64.84;98852.44;6159169;23;20001;-91
2022/08/20 02:02:38;;;;;;;8.85;5.68;;;;;;;20.91;64.66;98860.72;6135036;23;20035;-93
2022/08/20 02:05:03;;;;;;;8.10;5.70;;;;;;;20.87;64.47;98848.88;6110124;23;20435;-91
2022/08/20 02:07:31;;;;;;;7.50;5.55;;;;;;;20.83;64.94;98847.19;6134967;23;20005;-91
2022/08/20 02:09:56;;;;;;;6.82;5.53;;;;;;;20.87;65.38;98856.31;6159769;23;19997;-92
2022/08/20 02:12:22;;;;;;;8.27;5.43;;;;;;;20.85;65.24;98842.97;6134256;23;20329;-92
2022/08/20 02:14:50;;;;;;;6.88;5.25;;;;;;;20.85;64.79;98847.66;6110673;23;20074;-91
2022/08/20 02:17:15;;;;;;;6.60;5.35;;;;;;;20.89;65.26;98843.84;6159380;23;20008;-91
2022/08/20 02:19:44;;;;;;;6.47;5.30;;;;;;;20.96;64.82;98856.97;6135299;23;20347;-89
2022/08/20 02:22:39;;;;;;;7.10;5.07;;;;;;;20.90;65.21;98844.66;6134396;23;20001;-92
2022/08/20 02:25:05;;;;;;;7.32;5.20;;;;;;;20.97;65.14;98844.84;6156960;23;20040;-92
2022/08/20 02:27:31;;;;;;;7.18;5.47;;;;;;;20.85;65.52;98828.50;6214303;23;20534;-91
2022/08/20 02:29:57;;;;;;;7.47;5.35;;;;;;;20.87;65.47;98829.72;6163730;23;20000;-90
2022/08/20 02:32:23;;;;;;;6.82;5.00;;;;;;;20.87;65.16;98826.19;6163827;23;19997;-91
2022/08/20 02:34:48;;;;;;;8.63;5.88;;;;;;;20.95;65.33;98841.66;6164878;23;20382;-91
2022/08/20 02:37:15;;;;;;;5.97;4.88;;;;;;;20.85;65.79;98823.81;6163916;23;20019;-91
2022/08/20 02:39:41;;;;;;;7.22;5.30;;;;;;;20.88;65.33;98827.81;6164524;23;19996;-91
2022/08/20 02:42:06;;;;;;;7.22;5.65;;;;;;;20.90;65.66;98825.50;6189155;23;20000;-91
2022/08/20 02:44:32;;;;;;;6.10;5.13;;;;;;;20.79;65.67;98823.28;6163888;23;20011;-91
2022/08/20 02:46:59;;;;;;;8.38;5.20;;;;;;;20.79;65.79;98828.75;6164283;23;20039;-92
2022/08/20 02:49:24;;;;;;;7.00;5.85;;;;;;;20.76;65.99;98823.19;6164015;23;20000;-92
2022/08/20 02:51:49;;;;;;;7.38;5.38;;;;;;;20.78;65.73;98838.09;6158851;23;20008;-91
2022/08/20 02:54:16;;;;;;;6.68;4.93;;;;;;;20.84;65.19;98830.44;6156745;23;20004;-91
2022/08/20 02:56:41;;;;;;;7.43;5.50;;;;;;;20.84;65.57;98832.38;6188617;23;20008;-91
2022/08/20 02:59:07;;;;;;;8.48;5.43;;;;;;;20.93;65.46;98835.75;6188379;23;20347;-92
2022/08/20 03:01:32;;;;;;;8.02;5.65;;;;;;;21.19;63.91;98827.03;6163924;23;20004;-92
2022/08/20 03:03:58;;;;;;;8.20;5.20;;;;;;;21.38;64.06;98842.75;6183665;23;20328;-94
2022/08/20 03:06:25;;;;;;;8.90;4.75;;;;;;;21.43;63.81;98834.28;6209901;23;20032;-91
2022/08/20 03:08:50;;;;;;;8.70;5.60;;;;;;;21.48;62.94;98825.81;6187729;23;20026;-91
2022/08/20 03:11:17;;;;;;;9.07;5.40;;;;;;;21.50;63.06;98820.78;6164663;23;20028;-92
2022/08/20 03:13:43;;;;;;;6.70;4.97;;;;;;;21.57;62.57;98839.34;6164155;23;20083;-90
2022/08/20 03:16:08;;;;;;;7.13;5.28;;;;;;;21.30;64.17;98844.53;6188480;23;20003;-90
2022/08/20 03:18:36;;;;;;;8.55;5.72;;;;;;;21.11;64.99;98830.75;6189020;23;20027;-90
2022/08/20 03:21:03;;;;;;;7.25;5.63;;;;;;;21.01;65.29;98837.53;6189257;23;20011;-90
2022/08/20 03:23:29;;;;;;;6.43;5.25;;;;;;;20.81;65.46;98833.88;6163531;23;20016;-90
2022/08/20 03:25:54;;;;;;;8.52;5.68;;;;;;;20.73;65.58;98843.84;6163918;23;20015;-90
2022/08/20 03:28:20;;;;;;;14.95;6.80;;;;;;;20.54;65.88;98829.97;6163510;23;20035;-90
2022/08/20 03:30:46;;;;;;;8.15;5.90;;;;;;;20.47;66.93;98835.25;6138723;23;20043;-90
2022/08/20 03:33:11;;;;;;;7.80;5.80;;;;;;;20.41;67.07;98842.09;6163787;23;20000;-90
2022/08/20 03:35:37;;;;;;;8.82;6.22;;;;;;;20.37;67.19;98851.00;6139176;23;20059;-90
2022/08/20 03:38:09;;;;;;;8.73;6.22;;;;;;;20.34;67.18;98859.91;6164078;23;20088;-90
2022/08/20 03:40:35;;;;;;;9.82;6.50;;;;;;;20.28;67.36;98850.34;6139232;23;19996;-91
2022/08/20 03:43:00;;;;;;;8.45;6.40;;;;;;;20.25;67.17;98853.75;6138948;23;20011;-90
2022/08/20 03:45:26;;;;;;;12.20;6.97;;;;;;;20.30;67.45;98853.53;6163234;23;20424;-91
2022/08/20 03:47:52;;;;;;;8.13;6.32;;;;;;;20.28;67.28;98850.34;6139042;23;20345;-90
2022/08/20 03:50:19;;;;;;;9.10;6.15;;;;;;;20.35;67.33;98861.47;6163937;23;20031;-91
2022/08/20 03:52:44;;;;;;;9.00;6.80;;;;;;;20.25;67.36;98848.28;6139345;23;20078;-91
2022/08/20 03:55:10;;;;;;;9.93;6.47;;;;;;;20.32;67.43;98856.72;6164298;23;19996;-89
2022/08/20 03:57:35;;;;;;;10.60;6.60;;;;;;;20.27;67.44;98853.41;6138652;23;20024;-90
2022/08/20 04:00:01;;;;;;;9.68;6.88;;;;;;;20.24;67.61;98849.44;6139245;23;20005;-90
2022/08/20 04:02:27;;;;;;;13.27;6.97;;;;;;;20.27;67.46;98856.16;6188790;23;20000;-89
2022/08/20 04:04:53;;;;;;;9.48;6.03;;;;;;;20.16;67.58;98847.66;6216187;23;20031;-90
2022/08/20 04:07:24;;;;;;;10.77;7.70;;;;;;;20.17;67.96;98855.50;6134631;23;20005;-90
2022/08/20 04:09:54;;;;;;;10.05;6.75;;;;;;;20.31;67.94;98868.78;6171077;23;20440;-90
2022/08/20 04:12:19;;;;;;;10.63;7.13;;;;;;;20.31;67.12;98857.06;6182040;23;20027;-90
2022/08/20 04:14:45;;;;;;;9.38;7.53;;;;;;;20.35;67.34;98849.75;6138402;23;19996;-92
2022/08/20 04:17:11;;;;;;;10.90;7.25;;;;;;;20.33;67.19;98841.88;6191136;23;19993;-91
2022/08/20 04:19:37;;;;;;;10.90;6.65;;;;;;;20.31;67.30;98843.38;6163294;23;20351;-91
2022/08/20 04:22:03;;;;;;;11.73;6.78;;;;;;;20.40;67.28;98855.00;6160180;23;20427;-90
2022/08/20 04:24:29;;;;;;;9.18;7.35;;;;;;;20.50;66.83;98859.97;6148347;23;20013;-90
2022/08/20 04:26:54;;;;;;;12.68;8.52;;;;;;;20.51;67.04;98858.03;6215847;23;20009;-89
2022/08/20 04:29:21;;;;;;;11.23;7.65;;;;;;;20.56;67.07;98858.56;6160194;23;19997;-90
2022/08/20 04:31:47;;;;;;;16.90;7.20;;;;;;;20.62;66.83;98855.63;6140113;23;20102;-89
2022/08/20 04:34:12;;;;;;;10.45;7.15;;;;;;;20.69;66.83;98866.75;6185055;23;20005;-89
2022/08/20 04:36:39;;;;;;;7.82;6.50;;;;;;;20.74;66.93;98867.31;6138319;23;19992;-90
2022/08/20 04:39:04;;;;;;;9.63;6.45;;;;;;;20.80;66.26;98873.34;6189511;23;20004;-90
2022/08/20 04:41:30;;;;;;;8.45;6.20;;;;;;;20.83;66.19;98869.88;6190852;23;20347;-91
2022/08/20 04:43:58;;;;;;;12.20;6.57;;;;;;;20.96;66.00;98873.38;6189988;23;20007;-90
2022/08/20 04:46:27;;;;;;;11.95;6.45;;;;;;;21.02;65.76;98885.63;6165187;23;20012;-91
2022/08/20 04:48:53;;;;;;;9.60;6.72;;;;;;;21.04;65.75;98874.34;6184940;23;20001;-89
2022/08/20 04:51:18;;;;;;;9.55;7.03;;;;;;;21.16;65.63;98894.22;6134667;23;20058;-91
2022/08/20 04:53:45;;;;;;;9.15;6.57;;;;;;;21.29;65.73;98894.16;6189685;23;20004;-94
2022/08/20 04:56:11;;;;;;;12.30;7.45;;;;;;;21.33;65.00;98884.09;6190130;23;19996;-90
2022/08/20 04:58:37;;;;;;;7.88;5.57;;;;;;;21.46;64.92;98882.09;6190134;23;19992;-90
2022/08/20 05:01:05;;;;;;;8.95;5.80;;;;;;;21.52;64.66;98872.47;6184722;23;19997;-90
2022/08/20 05:03:31;;;;;;;10.23;5.82;;;;;;;21.61;64.79;98864.09;6132995;23;20008;-90
2022/08/20 05:05:56;;;;;;;10.57;5.93;;;;;;;21.67;63.83;98868.16;6164816;23;20008;-90
2022/08/20 05:08:22;;;;;;;6.68;5.45;;;;;;;21.74;63.88;98873.78;6214184;23;20008;-90
2022/08/20 05:10:48;;;;;;;9.43;5.97;;;;;;;21.79;63.30;98868.06;6164686;23;20007;-89
2022/08/20 05:13:14;;;;;;;10.63;5.30;;;;;;;21.90;63.70;98880.03;6189753;23;20000;-89
2022/08/20 05:15:39;;;;;;;8.60;6.18;;;;;;;21.90;63.25;98865.56;6187548;23;20036;-90
2022/08/20 05:18:06;;;;;;;8.57;5.90;;;;;;;22.02;63.43;98868.19;6159679;23;20427;-89
2022/08/20 05:20:34;;;;;;;13.60;6.97;;;;;;;22.10;62.96;98866.38;6161486;23;20428;-90
2022/08/20 05:23:00;;;;;;;8.95;5.85;;;;;;;22.19;62.01;98856.00;6189562;23;20343;-90
2022/08/20 05:25:35;;;;;;;9.85;6.82;;;;;;;22.31;62.01;98866.09;6185942;23;20004;-92
2022/08/20 05:28:12;;;;;;;7.90;5.40;;;;;;;22.28;62.19;98848.38;6184943;23;20011;-91
2022/08/20 05:30:39;;;;;;;7.75;6.05;;;;;;;22.45;61.30;98857.34;6165217;23;20000;-91
2022/08/20 05:33:07;;;;;;;13.88;5.93;;;;;;;22.48;61.16;98856.66;6159373;23;20428;-91
2022/08/20 05:35:34;;;;;;;10.73;5.38;;;;;;;22.56;60.54;98863.88;6186083;23;20005;-90
2022/08/20 05:38:00;;;;;;;8.85;5.97;;;;;;;22.52;60.76;98852.81;6189729;23;20542;-91
2022/08/20 05:40:26;;;;;;;9.05;6.80;;;;;;;22.62;60.44;98856.94;6164859;23;20000;-91
2022/08/20 05:42:52;;;;;;;8.10;5.70;;;;;;;22.80;59.35;98849.81;6164915;23;20004;-92
2022/08/20 05:45:18;;;;;;;8.90;5.63;;;;;;;22.97;58.68;98847.78;6164392;23;20438;-91
2022/08/20 05:47:44;;;;;;;7.93;6.80;;;;;;;23.06;59.60;98864.84;6189499;23;20007;-91
2022/08/20 05:50:10;;;;;;;8.82;5.60;;;;;;;23.07;58.96;98857.41;6189754;23;20000;-92
2022/08/20 05:52:36;;;;;;;9.00;5.22;;;;;;;23.21;58.09;98854.91;6164275;23;20346;-91
2022/08/20 05:55:03;;;;;;;11.80;6.55;;;;;;;23.43;58.05;98860.75;6189821;23;20004;-91
2022/08/20 05:57:33;;;;;;;8.15;6.38;;;;;;;23.51;58.38;98856.97;6189683;23;20003;-91
2022/08/20 06:00:00;;;;;;;8.57;5.53;;;;;;;23.67;57.22;98860.38;6190159;23;20001;-89
2022/08/20 06:05:09;;;;;;;6.10;5.13;;;;;;;24.03;55.33;98852.72;6194750;23;20007;-91
2022/08/20 06:07:35;;;;;;;11.70;5.70;;;;;;;24.08;55.12;98848.84;6189837;23;20008;-91
2022/08/20 06:10:01;;;;;;;8.05;5.15;;;;;;;24.12;55.40;98842.22;6189744;23;20016;-90
2022/08/20 06:12:26;;;;;;;10.27;5.53;;;;;;;24.18;56.17;98854.47;6189847;23;20004;-91
2022/08/20 06:14:51;;;;;;;8.77;5.38;;;;;;;24.36;55.47;98864.91;6189888;23;20001;-92
2022/08/20 06:17:17;;;;;;;7.55;5.43;;;;;;;24.47;54.86;98857.59;6189250;23;20007;-90
2022/08/20 06:19:44;;;;;;;20.45;6.00;;;;;;;24.39;54.40;98845.69;6164660;23;19997;-91
2022/08/20 06:22:10;;;;;;;7.90;5.10;;;;;;;24.59;53.98;98849.13;6189720;23;20007;-89
2022/08/20 06:24:35;;;;;;;7.85;5.63;;;;;;;24.81;53.29;98849.34;6164945;23;20016;-90
2022/08/20 06:27:02;;;;;;;6.35;5.13;;;;;;;24.96;54.31;98847.53;6164951;23;20009;-90
2022/08/20 06:29:28;;;;;;;7.10;4.93;;;;;;;25.13;53.66;98854.41;6189035;23;20003;-94
2022/08/20 06:31:54;;;;;;;6.50;5.18;;;;;;;25.25;52.71;98842.34;6164773;23;20001;-91
2022/08/20 06:34:19;;;;;;;13.23;5.32;;;;;;;25.45;51.99;98849.22;6164468;23;20035;-91
2022/08/20 06:36:48;;;;;;;11.13;8.02;;;;;;;25.65;52.42;98848.97;6164901;23;20051;-92
2022/08/20 06:39:13;;;;;;;10.50;6.32;;;;;;;25.74;51.98;98827.38;6165480;23;19997;-92
2022/08/20 06:41:39;;;;;;;8.15;5.38;;;;;;;25.94;51.85;98838.94;6163804;23;20022;-90
2022/08/20 06:44:05;;;;;;;12.15;5.28;;;;;;;26.03;51.83;98833.88;6188788;23;20339;-90
2022/08/20 06:46:31;;;;;;;7.05;4.82;;;;;;;26.09;51.44;98826.03;6188947;23;20003;-91
2022/08/20 06:48:56;;;;;;;9.13;4.88;;;;;;;26.29;50.92;98832.81;6189051;23;20001;-90
2022/08/20 06:51:22;;;;;;;7.45;5.32;;;;;;;26.44;50.50;98835.63;6188187;23;20057;-93
2022/08/20 06:53:47;;;;;;;11.60;5.03;;;;;;;26.61;49.56;98834.97;6188768;23;20444;-90
2022/08/20 06:56:13;;;;;;;6.68;4.38;;;;;;;26.83;48.63;98841.31;6188861;23;20000;-91
2022/08/20 06:58:39;;;;;;;6.88;4.28;;;;;;;27.04;48.68;98846.13;6188880;23;19992;-91
2022/08/20 07:01:08;;;;;;;8.25;3.97;;;;;;;27.13;47.48;98831.91;6188543;23;20000;-90
2022/08/20 07:03:34;;;;;;;5.13;3.58;;;;;;;27.37;45.91;98846.94;6188243;23;20067;-90
2022/08/20 07:05:59;;;;;;;8.07;4.72;;;;;;;27.44;45.96;98832.34;6188378;23;20494;-91
2022/08/20 07:08:24;;;;;;;6.47;4.00;;;;;;;27.59;45.13;98834.69;6188668;23;20440;-90
2022/08/20 07:10:50;;;;;;;8.02;3.75;;;;;;;27.73;44.23;98820.06;6188597;23;19996;-90
2022/08/20 07:13:15;;;;;;;6.78;3.75;;;;;;;27.90;43.98;98818.47;6188638;23;20004;-91
2022/08/20 07:15:42;;;;;;;10.27;3.90;;;;;;;28.04;43.74;98816.84;6213718;23;19996;-90
2022/08/20 07:18:08;;;;;;;4.88;3.25;;;;;;;28.25;43.39;98821.56;6188718;23;20455;-91
2022/08/20 07:20:35;;;;;;;7.55;3.85;;;;;;;28.41;43.04;98819.13;6188280;23;20054;-90
2022/08/20 07:23:02;;;;;;;4.07;3.22;;;;;;;28.65;42.15;98828.50;6163408;23;20000;-92
2022/08/20 07:25:29;;;;;;;6.28;3.30;;;;;;;28.73;41.82;98815.41;6188557;23;20007;-91
2022/08/20 07:28:19;;;;;;;4.03;3.38;;;;;;;28.85;40.35;98808.63;6163380;23;20098;-91
2022/08/20 07:33:28;;;;;;;6.07;3.40;;;;;;;29.14;40.19;98798.16;6193565;23;20414;-90
2022/08/20 07:35:57;;;;;;;4.53;3.35;;;;;;;29.30;39.74;98803.97;6139557;23;20001;-91
2022/08/20 07:38:24;;;;;;;6.15;3.33;;;;;;;29.43;39.01;98801.47;6189478;23;20055;-92
2022/08/20 07:40:54;;;;;;;5.13;3.20;;;;;;;29.59;38.75;98795.34;6188520;23;20457;-90
2022/08/20 07:43:22;;;;;;;5.97;3.45;;;;;;;29.68;38.68;98778.25;6188111;23;20018;-90
2022/08/20 07:45:48;;;;;;;5.85;2.92;;;;;;;29.78;37.56;98785.66;6188170;23;20497;-90
2022/08/20 07:48:13;;;;;;;4.10;3.20;;;;;;;29.84;37.61;98781.25;6213414;23;20005;-92
2022/08/20 07:50:39;;;;;;;4.47;3.10;;;;;;;29.94;36.83;98785.13;6190234;23;20002;-90
2022/08/20 07:53:04;;;;;;;8.93;4.35;;;;;;;30.09;37.19;98769.06;6190773;23;20031;-91
2022/08/20 07:55:30;;;;;;;7.47;3.15;;;;;;;30.13;35.16;98759.50;6190752;23;19996;-92
2022/08/20 07:57:57;;;;;;;5.78;2.95;;;;;;;30.31;35.30;98762.06;6167189;23;20001;-91
2022/08/20 08:00:23;;;;;;;5.63;3.03;;;;;;;30.45;34.62;98766.66;6217211;23;20379;-91
2022/08/20 08:02:48;;;;;;;4.95;2.67;;;;;;;30.61;34.68;98777.94;6165847;23;20004;-91
2022/08/20 08:05:14;;;;;;;5.20;2.90;;;;;;;30.61;34.33;98780.72;6190980;23;20004;-90
2022/08/20 08:07:40;;;;;;;6.75;3.13;;;;;;;30.61;34.01;98766.84;6191677;23;20008;-91
2022/08/20 08:10:07;;;;;;;3.70;3.20;;;;;;;30.73;34.21;98773.00;6216141;23;20008;-91
2022/08/20 08:12:38;;;;;;;3.72;2.92;;;;;;;30.84;34.37;98768.09;6165906;23;20004;-90
2022/08/20 08:15:04;;;;;;;4.72;3.10;;;;;;;30.90;34.17;98765.63;6166208;23;20000;-91
2022/08/20 08:17:33;;;;;;;8.13;3.03;;;;;;;30.93;34.23;98760.03;6165276;23;19993;-91
2022/08/20 08:20:00;;;;;;;3.85;2.72;;;;;;;31.11;34.19;98768.09;6190376;23;20087;-91
2022/08/20 08:22:26;;;;;;;7.03;3.20;;;;;;;31.19;33.01;98755.63;6190203;23;19997;-91
2022/08/20 08:24:51;;;;;;;5.32;3.00;;;;;;;31.07;32.82;98755.44;6160101;23;20017;-91
2022/08/20 08:30:03;;;;;;;6.15;2.80;;;;;;;31.36;31.66;98761.31;6173018;22;20021;-93
2022/08/20 08:32:31;;;;;;;5.88;2.75;;;;;;;31.46;31.58;98756.78;6192167;23;20430;-93
2022/08/20 08:35:01;;;;;;;5.22;2.85;;;;;;;31.30;32.20;98761.00;6170979;23;20397;-93
2022/08/20 08:37:27;;;;;;;5.07;3.05;;;;;;;31.40;32.17;98746.13;6171014;23;19996;-90
2022/08/20 08:39:52;;;;;;;4.97;2.70;;;;;;;31.60;32.34;98753.72;6194823;23;20397;-95
2022/08/20 08:42:25;;;;;;;4.22;2.78;;;;;;;31.61;32.44;98750.53;6195572;23;20103;-96
2022/08/20 08:44:52;;;;;;;4.70;3.20;;;;;;;31.78;32.15;98750.63;6184002;23;20000;-94
2022/08/20 08:47:33;;;;;;;3.55;2.83;;;;;;;31.74;31.88;98750.69;6197155;23;20004;-95
2022/08/20 08:49:59;;;;;;;4.65;2.90;;;;;;;31.80;31.31;98746.19;6165228;23;20004;-95
2022/08/20 08:52:30;;;;;;;4.38;2.97;;;;;;;31.82;31.19;98749.34;6196286;23;20003;-94
2022/08/20 08:54:57;;;;;;;3.60;2.80;;;;;;;31.87;30.76;98738.91;6196085;23;19996;-95
2022/08/20 08:57:28;;;;;;;4.38;2.95;;;;;;;31.91;31.10;98729.25;6176258;23;19992;-96
2022/08/20 08:59:56;;;;;;;5.63;3.58;;;;;;;32.03;31.30;98724.31;6225404;23;19996;-96
2022/08/20 09:02:24;;;;;;;7.65;3.40;;;;;;;31.81;30.62;98735.84;6172774;23;20000;-94
2022/08/20 09:04:50;;;;;;;5.55;3.10;;;;;;;32.03;31.01;98739.00;6174424;23;20069;-96
2022/08/20 09:07:16;;;;;;;5.68;2.90;;;;;;;32.01;31.43;98731.06;6197408;23;20000;-95
2022/08/20 09:09:43;;;;;;;9.73;2.90;;;;;;;32.00;30.39;98737.88;6196472;23;20011;-95
2022/08/20 09:12:21;;;;;;;4.75;3.60;;;;;;;32.27;31.13;98738.91;6173319;23;20004;-94
2022/08/20 09:14:47;;;;;;;5.10;3.08;;;;;;;32.19;31.01;98718.78;6173880;23;20028;-94
2022/08/20 09:17:13;;;;;;;5.25;3.30;;;;;;;32.26;30.45;98724.19;6172815;23;20003;-95
2022/08/20 09:19:39;;;;;;;3.35;2.92;;;;;;;32.27;29.82;98722.19;6196663;23;20035;-96
2022/08/20 09:22:13;;;;;;;8.32;3.67;;;;;;;32.17;29.82;98713.63;6199371;23;19996;-93
2022/08/20 09:24:39;;;;;;;6.38;3.45;;;;;;;32.17;30.19;98713.63;6171211;23;20004;-94
2022/08/20 09:27:05;;;;;;;4.38;3.22;;;;;;;32.31;29.33;98715.34;6197050;23;20062;-93
2022/08/20 09:29:33;;;;;;;8.93;3.33;;;;;;;32.25;29.17;98725.41;6196058;23;20087;-94
2022/08/20 09:32:20;;;;;;;4.40;3.30;;;;;;;32.38;29.66;98720.72;6195759;23;20049;-93
2022/08/20 09:34:54;;;;;;;5.72;3.38;;;;;;;32.21;29.95;98699.63;6220755;23;20014;-94
2022/08/20 09:37:20;;;;;;;7.22;3.20;;;;;;;32.25;29.55;98711.50;6197329;23;20054;-92
2022/08/20 09:39:46;;;;;;;4.40;3.17;;;;;;;32.07;29.80;98708.31;6195171;23;20419;-92
2022/08/20 09:42:23;;;;;;;4.50;3.13;;;;;;;32.06;29.98;98703.94;6194871;23;19996;-92
2022/08/20 09:44:48;;;;;;;7.32;3.20;;;;;;;32.26;30.09;98698.34;6170497;23;20039;-93
2022/08/20 09:47:17;;;;;;;6.18;3.65;;;;;;;32.37;30.21;98702.47;6196148;23;19996;-94
2022/08/20 09:49:43;;;;;;;4.85;3.13;;;;;;;32.45;29.70;98702.28;6196706;23;20011;-93
2022/08/20 09:52:10;;;;;;;5.32;3.83;;;;;;;32.63;29.33;98707.47;6195160;23;20003;-93
2022/08/20 09:54:36;;;;;;;6.70;3.55;;;;;;;32.70;29.25;98715.66;6195226;23;20003;-91
2022/08/20 09:57:04;;;;;;;3.90;3.15;;;;;;;32.60;29.05;98700.75;6193912;23;19996;-94
2022/08/20 09:59:30;;;;;;;6.95;3.35;;;;;;;32.63;29.16;98688.75;6194649;23;20010;-94
2022/08/20 10:01:55;;;;;;;4.60;3.22;;;;;;;32.76;28.76;98686.03;6195235;23;20078;-93
2022/08/20 10:04:21;;;;;;;5.20;3.40;;;;;;;32.70;29.02;98688.56;6195411;23;19996;-94
2022/08/20 10:06:46;;;;;;;4.85;3.47;;;;;;;32.93;29.31;98684.03;6195654;23;20007;-95
2022/08/20 10:09:12;;;;;;;5.03;3.50;;;;;;;32.86;28.77;98678.63;6194266;23;20015;-93
2022/08/20 10:11:37;;;;;;;4.78;3.10;;;;;;;32.96;28.13;98670.00;6194144;23;20087;-93
2022/08/20 10:14:03;;;;;;;4.68;3.17;;;;;;;32.76;29.07;98674.88;6194293;23;19996;-92
2022/08/20 10:16:31;;;;;;;5.25;3.35;;;;;;;32.86;28.89;98670.28;6195047;23;20385;-94
2022/08/20 10:18:56;;;;;;;5.35;3.22;;;;;;;32.96;28.97;98675.56;6195497;23;20003;-90
2022/08/20 10:21:22;;;;;;;6.18;3.78;;;;;;;32.85;28.63;98663.88;6170003;23;20007;-94
2022/08/20 10:23:48;;;;;;;4.75;3.45;;;;;;;32.85;28.77;98666.66;6194261;23;20084;-92
2022/08/20 10:26:14;;;;;;;4.88;3.85;;;;;;;32.95;28.48;98667.63;6195357;23;20151;-91
2022/08/20 10:28:40;;;;;;;6.25;3.53;;;;;;;33.17;28.42;98671.47;6195373;23;20024;-94
2022/08/20 10:31:06;;;;;;;6.97;3.45;;;;;;;33.17;28.02;98657.50;6220306;23;20023;-93
2022/08/20 10:33:32;;;;;;;5.68;3.45;;;;;;;33.27;27.77;98658.47;6169580;23;20008;-93
2022/08/20 10:35:57;;;;;;;5.35;3.25;;;;;;;33.30;27.78;98648.41;6195388;23;20058;-93
2022/08/20 10:38:23;;;;;;;4.05;3.03;;;;;;;33.20;27.48;98650.25;6170386;23;19996;-94
2022/08/20 10:40:48;;;;;;;6.60;3.30;;;;;;;33.43;27.22;98654.81;6170298;23;20008;-96
2022/08/20 10:43:14;;;;;;;4.30;3.15;;;;;;;33.34;27.52;98646.31;6195214;23;20000;-95
2022/08/20 10:45:39;;;;;;;4.10;3.45;;;;;;;33.48;27.52;98643.13;6195857;23;20004;-94
2022/08/20 10:48:06;;;;;;;4.00;3.10;;;;;;;33.55;27.34;98630.97;6194469;23;20007;-94
2022/08/20 10:50:31;;;;;;;4.95;3.45;;;;;;;33.69;27.40;98638.19;6169364;23;20415;-93
2022/08/20 10:52:57;;;;;;;6.78;3.58;;;;;;;33.64;27.31;98628.34;6195371;23;20003;-94
2022/08/20 10:55:22;;;;;;;5.82;3.17;;;;;;;33.64;27.60;98630.34;6170022;23;19996;-95
2022/08/20 10:57:57;;;;;;;4.30;3.20;;;;;;;33.73;27.40;98634.03;6194744;23;20000;-95
2022/08/20 11:00:23;;;;;;;7.10;3.15;;;;;;;33.77;27.26;98625.56;6169698;23;20422;-94
2022/08/20 11:02:48;;;;;;;7.47;3.50;;;;;;;33.83;27.34;98612.63;6169718;23;20015;-93
2022/08/20 11:05:14;;;;;;;4.93;3.28;;;;;;;33.96;27.04;98609.84;6193561;23;20446;-94
2022/08/20 11:07:42;;;;;;;6.07;3.25;;;;;;;33.94;26.83;98620.66;6169479;23;20004;-92
2022/08/20 11:10:08;;;;;;;5.60;3.47;;;;;;;33.91;27.30;98604.78;6195349;23;19996;-93
2022/08/20 11:12:33;;;;;;;4.68;3.30;;;;;;;33.98;27.22;98607.38;6219377;23;19999;-94
2022/08/20 11:14:59;;;;;;;5.38;3.20;;;;;;;33.95;26.96;98600.69;6169164;23;20434;-93
2022/08/20 11:17:26;;;;;;;5.60;3.58;;;;;;;34.09;27.11;98601.44;6194024;23;19996;-92
2022/08/20 11:19:52;;;;;;;5.72;3.55;;;;;;;34.06;27.08;98603.13;6169693;23;20342;-95
2022/08/20 11:22:18;;;;;;;7.07;3.45;;;;;;;33.86;26.75;98589.38;6170121;23;20004;-93
2022/08/20 11:24:43;;;;;;;4.97;3.10;;;;;;;33.90;27.01;98606.81;6194334;23;20056;-94
2022/08/20 11:27:08;;;;;;;7.07;3.55;;;;;;;33.92;27.10;98611.94;6194190;23;20394;-94
2022/08/20 11:29:35;;;;;;;4.78;3.05;;;;;;;33.81;27.13;98603.91;6169996;23;20358;-95
2022/08/20 11:32:00;;;;;;;6.88;4.30;;;;;;;33.76;27.24;98605.22;6169120;23;20020;-94
2022/08/20 11:34:26;;;;;;;5.68;3.45;;;;;;;33.97;26.70;98608.59;6194551;23;20007;-94
2022/08/20 11:36:52;;;;;;;6.20;3.78;;;;;;;34.00;27.19;98602.91;6193979;23;20003;-95
2022/08/20 11:39:17;;;;;;;5.85;3.00;;;;;;;33.80;27.07;98589.13;6172491;23;20423;-93
2022/08/20 11:41:43;;;;;;;7.63;4.10;;;;;;;33.88;27.70;98595.28;6172993;23;20004;-93